Time;durP1;ratioP1;P1;durP2;ratioP2;P2;SDS_P1;SDS_P2;PMS_P1;PMS_P2;Temp;Humidity;BMP_temperature;BMP_pressure;BME280_temperature;BME280_humidity;BME280_pressure;Samples;Min_cycle;Max_cycle;Signal;HPM_P1;HPM_P2
2022/06/17 00:01:55;;;;;;;3.97;0.80;;;16.80;99.90;;;;;;5075664;28;20252;-65
2022/06/17 00:04:22;;;;;;;1.47;0.70;;;16.70;99.90;;;;;;5093473;28;20679;-65
2022/06/17 00:06:56;;;;;;;2.77;0.97;;;16.50;99.90;;;;;;5074402;28;20185;-66
2022/06/17 00:09:26;;;;;;;1.90;0.70;;;16.80;99.90;;;;;;5073763;28;20183;-64
2022/06/17 00:11:54;;;;;;;4.20;0.70;;;16.80;99.90;;;;;;5055679;28;20190;-65
2022/06/17 00:14:32;;;;;;;2.10;0.90;;;17.20;99.90;;;;;;5073591;28;20693;-64
2022/06/17 00:17:09;;;;;;;1.33;0.73;;;17.00;99.90;;;;;;5076016;28;20193;-64
2022/06/17 00:19:37;;;;;;;3.27;1.20;;;17.20;99.90;;;;;;5093792;28;20176;-65
2022/06/17 00:22:04;;;;;;;2.60;0.80;;;17.20;99.90;;;;;;5093353;28;20198;-65
2022/06/17 00:24:33;;;;;;;1.97;0.97;;;17.40;99.90;;;;;;5093073;28;20178;-65
2022/06/17 00:27:01;;;;;;;5.60;1.17;;;17.50;99.90;;;;;;5092853;28;20248;-65
2022/06/17 00:29:30;;;;;;;1.70;1.20;;;17.90;99.90;;;;;;5092702;28;20652;-65
2022/06/17 00:31:59;;;;;;;2.17;1.20;;;17.90;99.90;;;;;;5075173;28;20556;-65
2022/06/17 00:34:26;;;;;;;2.27;1.33;;;18.00;99.90;;;;;;5093231;28;20266;-65
2022/06/17 00:36:57;;;;;;;4.20;1.30;;;18.40;99.90;;;;;;5095627;28;20188;-67
2022/06/17 00:39:31;;;;;;;1.47;1.20;;;18.30;99.90;;;;;;5105077;28;20194;-67
2022/06/17 00:42:14;;;;;;;2.47;1.30;;;18.40;99.90;;;;;;5092328;28;20183;-67
2022/06/17 00:45:02;;;;;;;2.73;1.30;;;18.80;99.90;;;;;;5092927;28;20186;-67
2022/06/17 00:47:50;;;;;;;2.57;0.83;;;18.60;99.90;;;;;;5093140;28;20176;-67
2022/06/17 00:50:47;;;;;;;1.27;0.97;;;18.60;99.90;;;;;;5092828;28;20729;-67
2022/06/17 00:53:29;;;;;;;2.93;0.80;;;18.60;99.90;;;;;;5093051;28;20176;-67
2022/06/17 00:56:00;;;;;;;0.50;0.50;;;18.10;99.90;;;;;;5092564;28;20296;-67
2022/06/17 00:58:32;;;;;;;0.47;0.47;;;18.80;99.90;;;;;;5092931;28;20182;-67
2022/06/17 01:01:02;;;;;;;1.90;0.40;;;19.10;99.90;;;;;;5092563;28;20190;-67
2022/06/17 01:03:35;;;;;;;1.23;0.60;;;18.80;99.90;;;;;;5092614;28;20187;-66
2022/06/17 01:06:09;;;;;;;3.30;0.60;;;19.00;99.90;;;;;;5092840;28;20541;-67
2022/06/17 01:11:38;;;;;;;0.40;0.40;;;19.00;99.90;;;;;;5078339;28;20281;-67
2022/06/17 01:14:08;;;;;;;1.17;0.40;;;19.20;99.90;;;;;;5072487;28;20210;-67
2022/06/17 01:16:38;;;;;;;2.60;0.60;;;19.50;99.90;;;;;;5072145;28;20603;-67
2022/06/17 01:19:24;;;;;;;1.37;0.30;;;19.50;99.90;;;;;;5072152;28;20249;-66
2022/06/17 01:22:13;;;;;;;0.87;0.40;;;19.40;99.90;;;;;;5087290;28;20183;-65
2022/06/17 01:24:40;;;;;;;0.47;0.33;;;19.70;99.90;;;;;;5092259;28;20179;-66
2022/06/17 01:27:08;;;;;;;0.40;0.40;;;19.70;99.90;;;;;;5091123;28;20717;-66
2022/06/17 01:29:35;;;;;;;0.40;0.40;;;19.70;99.90;;;;;;5091690;28;20187;-66
2022/06/17 01:32:03;;;;;;;0.53;0.50;;;19.70;99.90;;;;;;5091040;28;20544;-65
2022/06/17 01:34:31;;;;;;;1.53;0.40;;;19.80;99.90;;;;;;5091658;28;20183;-66
2022/06/17 01:36:58;;;;;;;0.90;0.30;;;20.20;99.90;;;;;;5091433;28;20191;-65
2022/06/17 01:39:26;;;;;;;0.67;0.30;;;20.40;99.90;;;;;;5074392;28;20254;-66
2022/06/17 01:41:53;;;;;;;1.73;0.37;;;20.40;99.90;;;;;;5091885;28;20274;-65
2022/06/17 01:44:28;;;;;;;0.43;0.40;;;19.80;99.90;;;;;;5091895;28;20617;-66
2022/06/17 01:46:57;;;;;;;1.13;0.73;;;19.80;99.90;;;;;;5091338;28;20193;-64
2022/06/17 01:49:36;;;;;;;0.50;0.50;;;20.50;99.90;;;;;;5091751;28;20201;-65
2022/06/17 01:52:13;;;;;;;1.83;0.50;;;20.50;99.90;;;;;;5091534;28;20248;-65
2022/06/17 01:54:49;;;;;;;0.30;0.30;;;20.30;99.90;;;;;;5090230;28;20205;-66
2022/06/17 01:57:22;;;;;;;2.13;0.33;;;19.80;99.90;;;;;;5091004;28;20194;-65
2022/06/17 01:59:57;;;;;;;0.40;0.40;;;20.40;99.90;;;;;;5091970;28;20199;-65
2022/06/17 02:02:26;;;;;;;0.40;0.40;;;20.70;99.90;;;;;;5073261;28;20195;-64
2022/06/17 02:04:57;;;;;;;2.20;0.40;;;20.80;99.90;;;;;;5091612;28;20194;-66
2022/06/17 02:07:34;;;;;;;0.60;0.40;;;20.50;99.90;;;;;;5091267;28;20194;-65
2022/06/17 02:10:02;;;;;;;0.47;0.30;;;20.50;99.90;;;;;;5090727;28;20186;-64
2022/06/17 02:12:31;;;;;;;0.40;0.30;;;20.60;99.90;;;;;;5091477;28;20705;-64
2022/06/17 02:14:58;;;;;;;0.30;0.30;;;20.60;99.90;;;;;;5072885;28;20215;-65
2022/06/17 02:17:34;;;;;;;0.47;0.47;;;20.70;99.90;;;;;;5090786;28;20199;-65
2022/06/17 02:20:02;;;;;;;0.30;0.30;;;21.10;99.90;;;;;;5091464;28;20171;-65
2022/06/17 02:22:32;;;;;;;0.67;0.50;;;21.20;99.90;;;;;;5082261;28;20263;-65
2022/06/17 02:25:05;;;;;;;1.80;0.50;;;20.90;99.90;;;;;;5090884;28;20336;-65
2022/06/17 02:27:35;;;;;;;1.07;0.80;;;21.40;99.90;;;;;;5088633;28;20199;-67
2022/06/17 02:30:06;;;;;;;2.20;0.50;;;21.80;99.90;;;;;;5091506;28;20215;-67
2022/06/17 02:32:34;;;;;;;0.47;0.43;;;21.80;99.90;;;;;;5091374;28;20193;-67
2022/06/17 02:35:12;;;;;;;0.53;0.40;;;21.70;99.90;;;;;;5095248;28;20272;-66
2022/06/17 02:37:40;;;;;;;0.40;0.40;;;22.00;99.90;;;;;;5095280;28;20778;-66
2022/06/17 02:40:34;;;;;;;1.73;0.30;;;22.40;99.90;;;;;;5095437;28;20174;-66
2022/06/17 02:43:07;;;;;;;1.13;0.30;;;22.30;99.90;;;;;;5094657;28;20290;-66
2022/06/17 02:45:42;;;;;;;3.67;0.40;;;21.20;99.90;;;;;;5095329;28;20175;-66
2022/06/17 02:48:21;;;;;;;0.30;0.30;;;21.70;99.90;;;;;;5077838;28;20218;-66
2022/06/17 02:50:50;;;;;;;0.50;0.50;;;22.10;99.90;;;;;;5077171;28;20209;-67
2022/06/17 02:53:21;;;;;;;0.40;0.30;;;22.20;99.90;;;;;;5094639;28;20190;-67
2022/06/17 02:55:49;;;;;;;0.53;0.40;;;21.90;99.90;;;;;;5094651;28;20294;-66
2022/06/17 02:58:22;;;;;;;1.63;1.43;;;21.90;99.90;;;;;;5076554;28;20182;-67
2022/06/17 03:00:51;;;;;;;0.50;0.50;;;22.20;99.90;;;;;;5095160;28;20218;-64
2022/06/17 03:03:21;;;;;;;0.40;0.40;;;22.00;99.90;;;;;;5095122;28;20186;-67
2022/06/17 03:05:48;;;;;;;1.03;0.50;;;21.80;99.90;;;;;;5094837;28;20198;-65
2022/06/17 03:08:32;;;;;;;0.47;0.30;;;21.80;99.90;;;;;;5095085;28;20183;-65
2022/06/17 03:11:02;;;;;;;1.90;0.40;;;21.80;99.90;;;;;;5094497;28;20182;-67
2022/06/17 03:13:58;;;;;;;0.27;0.27;;;22.20;99.90;;;;;;5094340;28;20270;-66
2022/06/17 03:16:26;;;;;;;1.43;0.50;;;22.40;99.90;;;;;;5089368;28;20207;-66
2022/06/17 03:18:55;;;;;;;0.80;0.60;;;21.90;99.90;;;;;;5094082;28;20185;-67
2022/06/17 03:21:24;;;;;;;0.40;0.40;;;21.90;99.90;;;;;;5094277;28;20648;-66
2022/06/17 03:23:55;;;;;;;0.30;0.30;;;21.80;99.90;;;;;;5095178;28;20187;-67
2022/06/17 03:26:42;;;;;;;0.63;0.30;;;21.50;99.90;;;;;;5096693;28;20281;-67
2022/06/17 03:29:12;;;;;;;1.33;0.53;;;21.70;99.90;;;;;;5096776;28;20178;-67
2022/06/17 03:32:06;;;;;;;0.70;0.50;;;22.30;99.90;;;;;;5075706;28;20179;-67
2022/06/17 03:34:45;;;;;;;0.30;0.30;;;21.50;99.90;;;;;;5092878;28;20191;-66
2022/06/17 03:37:13;;;;;;;0.43;0.40;;;22.10;99.90;;;;;;5093702;28;20183;-67
2022/06/17 03:39:45;;;;;;;0.67;0.50;;;21.80;99.90;;;;;;5093549;28;20284;-66
2022/06/17 03:42:13;;;;;;;2.30;0.80;;;21.70;99.90;;;;;;5092669;28;20193;-67
2022/06/17 03:45:26;;;;;;;0.50;0.50;;;21.80;99.90;;;;;;5092429;28;20197;-67
2022/06/17 03:48:04;;;;;;;2.83;0.70;;;21.80;99.90;;;;;;5052039;28;20336;-66
2022/06/17 03:50:37;;;;;;;2.37;0.80;;;21.60;99.90;;;;;;5092990;28;20541;-67
2022/06/17 03:53:06;;;;;;;0.50;0.50;;;21.60;99.90;;;;;;5074827;28;20178;-66
2022/06/17 03:55:34;;;;;;;0.93;0.80;;;22.30;99.90;;;;;;5093010;28;20275;-66
2022/06/17 03:58:03;;;;;;;0.50;0.50;;;21.90;99.90;;;;;;5075277;28;20179;-67
2022/06/17 04:00:42;;;;;;;0.77;0.50;;;21.80;99.90;;;;;;5092992;28;20176;-68
2022/06/17 04:03:15;;;;;;;0.60;0.50;;;21.70;99.90;;;;;;5092377;28;20687;-68
2022/06/17 04:05:46;;;;;;;2.03;0.40;;;22.60;99.90;;;;;;5092590;28;20182;-67
2022/06/17 04:08:13;;;;;;;1.47;0.30;;;22.70;99.90;;;;;;5092962;28;20175;-67
2022/06/17 04:10:41;;;;;;;2.43;0.30;;;22.20;99.90;;;;;;5092728;28;20187;-67
2022/06/17 04:13:15;;;;;;;0.50;0.50;;;21.20;99.90;;;;;;5091771;28;20659;-67
2022/06/17 04:16:17;;;;;;;0.60;0.53;;;20.60;99.90;;;;;;5092423;28;20209;-68
2022/06/17 04:18:44;;;;;;;0.73;0.50;;;20.30;99.90;;;;;;5092036;28;20190;-69
2022/06/17 04:21:15;;;;;;;0.90;0.63;;;20.10;99.90;;;;;;5092359;28;20650;-68
2022/06/17 04:23:47;;;;;;;0.80;0.80;;;20.50;99.90;;;;;;5091922;28;20190;-68
2022/06/17 04:26:31;;;;;;;2.83;0.50;;;20.20;99.90;;;;;;4951368;28;3575899;-68
2022/06/17 04:29:10;;;;;;;0.57;0.57;;;20.20;99.90;;;;;;5092170;28;20549;-66
2022/06/17 04:31:37;;;;;;;1.17;0.60;;;20.30;99.90;;;;;;5093352;28;20230;-67
2022/06/17 04:34:17;;;;;;;0.50;0.50;;;20.20;99.90;;;;;;5093242;28;20220;-66
2022/06/17 04:37:02;;;;;;;0.87;0.57;;;20.00;99.90;;;;;;5090308;28;20213;-67
2022/06/17 04:39:35;;;;;;;0.90;0.57;;;19.70;99.90;;;;;;5092129;28;20187;-67
2022/06/17 04:42:06;;;;;;;1.30;0.93;;;19.80;99.90;;;;;;5091884;28;20193;-67
2022/06/17 04:44:34;;;;;;;0.70;0.70;;;20.60;99.90;;;;;;5093030;28;20318;-66
2022/06/17 04:47:09;;;;;;;11.70;1.30;;;21.10;99.90;;;;;;5092710;28;20547;-66
2022/06/17 04:49:41;;;;;;;2.90;0.40;;;21.00;99.90;;;;;;5093244;28;20590;-66
2022/06/17 04:52:34;;;;;;;2.10;1.47;;;20.80;99.90;;;;;;5093072;28;20181;-66
2022/06/17 04:55:04;;;;;;;6.63;4.33;;;20.70;99.90;;;;;;5092515;28;20597;-66
2022/06/17 04:57:32;;;;;;;5.63;3.60;;;21.00;99.90;;;;;;5092485;28;20198;-66
2022/06/17 05:00:00;;;;;;;0.83;0.73;;;20.80;99.90;;;;;;5093050;28;20568;-66
2022/06/17 05:02:30;;;;;;;5.33;2.70;;;20.60;99.90;;;;;;5091542;28;20265;-65
2022/06/17 05:05:01;;;;;;;4.83;2.23;;;19.80;99.90;;;;;;5087786;28;20180;-66
2022/06/17 05:07:33;;;;;;;4.77;2.37;;;19.30;99.90;;;;;;5073778;28;20176;-66
2022/06/17 05:10:17;;;;;;;3.80;2.70;;;19.00;99.90;;;;;;5082534;28;20526;-65
2022/06/17 05:13:03;;;;;;;7.67;4.63;;;18.80;99.90;;;;;;5065482;28;20560;-64
2022/06/17 05:15:30;;;;;;;1.17;0.70;;;18.70;99.90;;;;;;5090465;28;20200;-65
2022/06/17 05:17:58;;;;;;;0.97;0.70;;;18.60;99.90;;;;;;5092351;28;20535;-65
2022/06/17 05:20:26;;;;;;;1.07;0.80;;;18.60;99.90;;;;;;5092314;28;20173;-65
2022/06/17 05:23:05;;;;;;;3.20;0.70;;;18.50;99.90;;;;;;5092271;28;20183;-65
2022/06/17 05:25:35;;;;;;;0.50;0.50;;;18.50;99.90;;;;;;5088028;28;20215;-65
2022/06/17 05:28:03;;;;;;;2.10;0.70;;;18.50;99.90;;;;;;5077758;28;20189;-65
2022/06/17 05:30:40;;;;;;;4.13;0.87;;;18.40;99.90;;;;;;5084168;28;20967;-65
2022/06/17 05:33:11;;;;;;;1.30;0.67;;;18.30;99.90;;;;;;5092307;28;20224;-65
2022/06/17 05:35:38;;;;;;;3.20;0.70;;;18.20;99.90;;;;;;5088050;28;20706;-66
2022/06/17 05:38:06;;;;;;;5.53;1.20;;;18.10;99.90;;;;;;5083049;28;20172;-65
2022/06/17 05:40:35;;;;;;;1.60;0.93;;;18.00;99.90;;;;;;5081094;28;20172;-66
2022/06/17 05:43:03;;;;;;;2.40;0.90;;;17.90;99.90;;;;;;5081748;28;20172;-66
2022/06/17 05:45:31;;;;;;;1.43;0.73;;;17.80;99.90;;;;;;5062474;28;20181;-66
2022/06/17 05:47:58;;;;;;;0.67;0.50;;;17.90;99.90;;;;;;5078740;28;20657;-66
2022/06/17 05:50:27;;;;;;;1.27;0.73;;;17.90;99.90;;;;;;5091114;28;20195;-65
2022/06/17 05:53:07;;;;;;;0.60;0.60;;;17.90;99.90;;;;;;5091942;28;20183;-66
2022/06/17 05:55:36;;;;;;;2.33;0.50;;;17.70;99.90;;;;;;5091807;28;20202;-67
2022/06/17 05:58:05;;;;;;;1.87;0.80;;;17.60;99.90;;;;;;5091663;28;20644;-66
2022/06/17 06:00:33;;;;;;;0.70;0.67;;;17.60;99.90;;;;;;5073003;28;20184;-65
2022/06/17 06:03:03;;;;;;;1.43;0.50;;;17.50;99.90;;;;;;5088347;28;20187;-68
2022/06/17 06:05:32;;;;;;;1.60;0.63;;;17.40;99.90;;;;;;5091826;28;20178;-67
2022/06/17 06:08:00;;;;;;;2.27;0.90;;;17.30;99.90;;;;;;5091533;28;20183;-65
2022/06/17 06:10:28;;;;;;;1.07;0.90;;;17.20;99.90;;;;;;5091334;28;20194;-67
2022/06/17 06:13:04;;;;;;;2.10;0.97;;;17.10;99.90;;;;;;5091812;28;20181;-65
2022/06/17 06:15:35;;;;;;;1.80;0.97;;;17.10;99.90;;;;;;5091666;28;20314;-66
2022/06/17 06:18:03;;;;;;;3.10;1.10;;;17.00;99.90;;;;;;5091806;28;20605;-66
2022/06/17 06:20:30;;;;;;;1.57;1.20;;;16.90;99.90;;;;;;5091351;28;20605;-64
2022/06/17 06:22:58;;;;;;;3.73;1.30;;;16.80;99.90;;;;;;5091784;28;20357;-66
2022/06/17 06:25:25;;;;;;;2.87;1.33;;;16.70;99.90;;;;;;5091318;28;20223;-65
2022/06/17 06:27:53;;;;;;;3.17;1.63;;;16.60;99.90;;;;;;5091569;28;20269;-65
2022/06/17 06:30:24;;;;;;;9.17;4.00;;;16.40;99.90;;;;;;5091428;28;20179;-65
2022/06/17 06:32:56;;;;;;;6.90;2.70;;;16.20;99.90;;;;;;5091326;28;20257;-66
2022/06/17 06:35:27;;;;;;;5.07;2.17;;;16.00;99.90;;;;;;5091037;28;20207;-66
2022/06/17 06:37:54;;;;;;;2.63;1.77;;;15.90;99.90;;;;;;5091001;28;20183;-66
2022/06/17 06:40:22;;;;;;;5.97;2.30;;;15.80;99.90;;;;;;5091367;28;20232;-66
2022/06/17 06:42:51;;;;;;;3.33;1.53;;;15.80;99.90;;;;;;5091288;28;20180;-68
2022/06/17 06:45:23;;;;;;;2.20;1.77;;;15.80;99.90;;;;;;5091312;28;20179;-67
2022/06/17 06:47:52;;;;;;;3.03;1.50;;;15.80;99.90;;;;;;5090274;28;20267;-66
2022/06/17 06:50:23;;;;;;;3.50;2.47;;;15.70;99.90;;;;;;5091268;28;20249;-66
2022/06/17 06:52:51;;;;;;;4.43;1.80;;;15.80;99.90;;;;;;5090958;28;20176;-67
2022/06/17 06:55:19;;;;;;;1.83;1.00;;;15.70;99.90;;;;;;5091053;28;20202;-67
2022/06/17 06:57:52;;;;;;;0.93;0.80;;;15.60;99.90;;;;;;5090913;28;20605;-67
2022/06/17 07:00:31;;;;;;;1.50;1.00;;;15.50;99.90;;;;;;5090702;28;20592;-67
2022/06/17 07:02:59;;;;;;;1.13;0.93;;;15.40;99.90;;;;;;5091319;28;20221;-66
2022/06/17 07:05:26;;;;;;;1.70;1.10;;;15.40;99.90;;;;;;5091240;28;20191;-67
2022/06/17 07:07:54;;;;;;;1.30;1.00;;;15.30;99.90;;;;;;5090942;28;20179;-66
2022/06/17 07:10:25;;;;;;;4.20;1.83;;;15.30;99.90;;;;;;5090970;28;20191;-66
2022/06/17 07:12:53;;;;;;;2.47;2.00;;;15.20;99.90;;;;;;5091138;28;20179;-66
2022/06/17 07:15:22;;;;;;;4.30;2.27;;;15.20;99.90;;;;;;5091174;28;20219;-66
2022/06/17 07:17:58;;;;;;;4.13;2.50;;;15.20;99.90;;;;;;5091241;28;20171;-66
2022/06/17 07:20:28;;;;;;;5.30;2.67;;;15.20;99.90;;;;;;5075677;28;20194;-66
2022/06/17 07:22:55;;;;;;;6.40;2.90;;;15.30;99.90;;;;;;5094740;28;20179;-65
2022/06/17 07:25:22;;;;;;;4.23;2.13;;;15.50;99.90;;;;;;5094723;28;20175;-66
2022/06/17 07:27:50;;;;;;;3.80;2.30;;;15.60;99.90;;;;;;5095085;28;20184;-66
2022/06/17 07:30:19;;;;;;;3.80;2.17;;;15.70;99.90;;;;;;5094543;28;20179;-66
2022/06/17 07:32:47;;;;;;;4.23;2.27;;;15.90;99.90;;;;;;5094975;28;20179;-66
2022/06/17 07:35:16;;;;;;;3.93;2.03;;;15.80;99.90;;;;;;5094519;28;20203;-65
2022/06/17 07:40:30;;;;;;;2.37;1.40;;;15.80;99.90;;;;;;5094773;28;20198;-67
2022/06/17 07:42:59;;;;;;;2.30;1.47;;;15.70;99.90;;;;;;5094614;28;20207;-66
2022/06/17 07:45:28;;;;;;;2.83;1.73;;;15.70;99.90;;;;;;5094574;28;20186;-66
2022/06/17 07:47:55;;;;;;;3.10;1.70;;;15.50;99.90;;;;;;5094382;28;20183;-68
2022/06/17 07:50:30;;;;;;;2.20;1.53;;;15.30;99.90;;;;;;5094279;28;20210;-66
2022/06/17 07:52:58;;;;;;;2.07;1.70;;;15.00;99.90;;;;;;5093332;28;20185;-67
2022/06/17 07:55:25;;;;;;;2.10;1.57;;;14.90;99.90;;;;;;5093945;28;20199;-66
2022/06/17 07:57:53;;;;;;;2.30;1.70;;;14.60;99.90;;;;;;5075697;28;20224;-65
2022/06/17 08:00:35;;;;;;;4.57;1.87;;;14.40;99.90;;;;;;5094328;28;20625;-66
2022/06/17 08:03:03;;;;;;;2.30;2.00;;;14.20;99.90;;;;;;5093766;28;20567;-65
2022/06/17 08:05:31;;;;;;;3.53;2.47;;;14.10;99.90;;;;;;5094342;28;20183;-65
2022/06/17 08:08:03;;;;;;;4.83;2.20;;;14.00;99.90;;;;;;5094105;28;20174;-65
2022/06/17 08:10:33;;;;;;;3.90;2.43;;;13.90;99.90;;;;;;5075795;28;20176;-65
2022/06/17 08:13:02;;;;;;;3.30;2.17;;;13.70;99.90;;;;;;5093795;28;20212;-65
2022/06/17 08:15:30;;;;;;;3.93;2.10;;;13.70;99.90;;;;;;5093541;28;20234;-64
2022/06/17 08:17:58;;;;;;;2.17;1.93;;;13.50;99.90;;;;;;5093934;28;20509;-65
2022/06/17 08:20:30;;;;;;;8.83;5.27;;;13.40;99.90;;;;;;5093966;28;20183;-65
2022/06/17 08:22:58;;;;;;;4.90;3.70;;;13.20;99.90;;;;;;5075758;28;20187;-65
2022/06/17 08:25:26;;;;;;;8.17;2.30;;;13.10;99.90;;;;;;5092907;28;20229;-64
2022/06/17 08:27:55;;;;;;;3.87;2.00;;;12.90;99.90;;;;;;5093744;28;20167;-64
2022/06/17 08:30:26;;;;;;;3.70;2.50;;;12.70;99.90;;;;;;5092229;28;20182;-65
2022/06/17 08:32:55;;;;;;;4.63;2.93;;;12.60;99.90;;;;;;5093350;28;20205;-65
2022/06/17 08:35:24;;;;;;;3.50;2.47;;;12.50;99.90;;;;;;5093515;28;20201;-65
2022/06/17 08:37:57;;;;;;;5.13;3.17;;;12.40;99.90;;;;;;5094258;28;20197;-65
2022/06/17 08:41:06;;;;;;;7.93;4.67;;;12.30;99.90;;;;;;5100826;28;20185;-65
2022/06/17 08:44:00;;;;;;;5.83;4.20;;;12.40;99.90;;;;;;5082902;28;20198;-65
2022/06/17 08:46:40;;;;;;;6.07;4.60;;;12.20;99.90;;;;;;5094625;28;20715;-66
2022/06/17 08:49:44;;;;;;;6.77;4.80;;;12.10;99.90;;;;;;5094596;28;20182;-65
2022/06/17 08:52:21;;;;;;;6.73;5.03;;;12.10;99.90;;;;;;5094314;28;20192;-64
2022/06/17 08:54:48;;;;;;;15.13;5.53;;;12.10;99.90;;;;;;5094066;28;20182;-66
2022/06/17 08:57:33;;;;;;;10.27;5.80;;;12.10;99.90;;;;;;5094297;28;20193;-66
2022/06/17 09:00:11;;;;;;;8.67;4.93;;;12.10;99.90;;;;;;5094346;28;20502;-65
2022/06/17 09:02:41;;;;;;;16.60;4.70;;;12.10;99.90;;;;;;5094378;28;20238;-65
2022/06/17 09:05:24;;;;;;;6.13;4.13;;;12.10;99.90;;;;;;5093643;28;20190;-65
2022/06/17 09:08:14;;;;;;;8.10;3.87;;;11.90;99.90;;;;;;5094210;28;20183;-66
2022/06/17 09:10:57;;;;;;;5.73;3.87;;;11.90;99.90;;;;;;5093927;28;20669;-65
2022/06/17 09:13:37;;;;;;;7.27;4.10;;;11.70;99.90;;;;;;5094135;28;20229;-66
2022/06/17 09:16:33;;;;;;;7.93;4.10;;;11.60;99.90;;;;;;5093784;28;20566;-65
2022/06/17 09:19:03;;;;;;;7.33;4.90;;;11.50;99.90;;;;;;5093841;28;20198;-66
2022/06/17 09:21:41;;;;;;;9.90;4.83;;;11.40;99.90;;;;;;5076226;28;20605;-65
2022/06/17 09:24:16;;;;;;;7.70;4.90;;;11.30;99.90;;;;;;5093852;28;20199;-65
2022/06/17 09:26:54;;;;;;;10.40;5.80;;;11.20;99.90;;;;;;5093795;28;20234;-65
2022/06/17 09:29:24;;;;;;;6.90;4.60;;;11.20;99.90;;;;;;5075718;28;20223;-65
2022/06/17 09:32:04;;;;;;;7.80;4.70;;;11.10;99.90;;;;;;5093223;28;20186;-65
2022/06/17 09:34:45;;;;;;;6.63;4.07;;;11.00;99.90;;;;;;5091932;28;20177;-65
2022/06/17 09:37:41;;;;;;;8.40;4.60;;;10.90;99.90;;;;;;5074684;28;20223;-65
2022/06/17 09:40:17;;;;;;;7.07;3.90;;;10.80;99.90;;;;;;5083117;28;20209;-65
2022/06/17 09:42:58;;;;;;;7.90;4.80;;;10.70;99.90;;;;;;5093417;28;20503;-66
2022/06/17 09:45:31;;;;;;;6.87;4.57;;;10.70;99.90;;;;;;5093743;28;20230;-66
2022/06/17 09:48:08;;;;;;;8.03;4.50;;;10.60;99.90;;;;;;5093652;28;20175;-66
2022/06/17 09:51:01;;;;;;;7.00;4.70;;;10.50;99.90;;;;;;5074984;28;20184;-66
2022/06/17 09:53:36;;;;;;;10.77;5.10;;;10.50;99.90;;;;;;5093615;28;20180;-65
2022/06/17 09:56:15;;;;;;;7.30;4.43;;;10.40;99.90;;;;;;5093624;28;20206;-65
2022/06/17 09:59:07;;;;;;;6.20;4.10;;;10.40;99.90;;;;;;5072247;28;20183;-65
2022/06/17 10:01:35;;;;;;;8.93;4.50;;;10.30;99.90;;;;;;5075032;28;20560;-65
2022/06/17 10:04:05;;;;;;;5.97;4.00;;;10.30;99.90;;;;;;5093241;28;20172;-67
2022/06/17 10:06:44;;;;;;;6.63;4.17;;;10.40;99.90;;;;;;5093274;28;20169;-67
2022/06/17 10:09:20;;;;;;;9.43;4.90;;;10.40;99.90;;;;;;5075099;28;20233;-65
2022/06/17 10:12:05;;;;;;;7.27;4.47;;;10.30;99.90;;;;;;5093128;28;20262;-65
2022/06/17 10:14:39;;;;;;;6.20;3.97;;;10.20;99.90;;;;;;5093348;28;20203;-65
2022/06/17 10:20:43;;;;;;;14.87;7.93;;;10.30;99.90;;;;;;5093580;28;20199;-67
2022/06/17 10:23:33;;;;;;;16.47;7.93;;;10.30;99.90;;;;;;5068600;28;20200;-66
2022/06/17 10:26:09;;;;;;;15.20;7.73;;;10.40;99.90;;;;;;5072840;28;20241;-67
2022/06/17 10:29:06;;;;;;;13.17;6.30;;;10.60;99.90;;;;;;5072940;28;20172;-67
2022/06/17 10:31:36;;;;;;;10.43;6.10;;;10.60;99.90;;;;;;5018870;28;20557;-67
2022/06/17 10:34:13;;;;;;;9.13;6.00;;;10.60;99.90;;;;;;5072848;28;20173;-66
2022/06/17 10:36:43;;;;;;;9.00;5.40;;;10.50;99.90;;;;;;5073261;28;20208;-66
2022/06/17 10:39:13;;;;;;;8.10;4.67;;;10.50;99.90;;;;;;5072507;28;20168;-66
2022/06/17 10:41:41;;;;;;;8.20;4.67;;;10.40;99.90;;;;;;5072531;28;20189;-65
2022/06/17 10:44:15;;;;;;;9.07;5.27;;;10.40;99.90;;;;;;5075712;28;20178;-65
2022/06/17 10:47:14;;;;;;;9.33;4.97;;;10.40;99.90;;;;;;5081339;28;20273;-65
2022/06/17 10:50:10;;;;;;;7.27;4.77;;;10.50;99.90;;;;;;5070285;28;20183;-66
2022/06/17 10:52:46;;;;;;;9.43;5.40;;;10.50;99.90;;;;;;5092804;28;20168;-66
2022/06/17 10:55:24;;;;;;;6.77;4.33;;;10.50;99.90;;;;;;5077717;28;20200;-67
2022/06/17 10:58:09;;;;;;;7.67;4.53;;;10.50;99.90;;;;;;5090532;28;20192;-67
2022/06/17 11:00:56;;;;;;;6.80;5.00;;;10.50;99.90;;;;;;5086302;28;20224;-66
2022/06/17 11:03:36;;;;;;;8.93;4.67;;;10.50;99.90;;;;;;5096922;28;20172;-66
2022/06/17 11:06:06;;;;;;;9.57;4.37;;;10.50;99.90;;;;;;5096749;28;20237;-67
2022/06/17 11:08:42;;;;;;;8.67;4.90;;;10.50;99.90;;;;;;5097083;28;20640;-66
2022/06/17 11:14:01;;;;;;;9.50;5.80;;;10.40;99.90;;;;;;5078834;28;20225;-66
2022/06/17 11:16:34;;;;;;;11.83;6.17;;;10.40;99.90;;;;;;5076156;28;20303;-68
2022/06/17 11:19:05;;;;;;;20.43;7.87;;;10.30;99.90;;;;;;5076041;28;20181;-66
2022/06/17 11:21:41;;;;;;;9.57;6.40;;;10.20;99.90;;;;;;5076079;28;20592;-66
2022/06/17 11:24:19;;;;;;;8.83;6.07;;;10.10;99.90;;;;;;5075946;28;20246;-66
2022/06/17 11:27:17;;;;;;;7.53;5.03;;;10.00;99.90;;;;;;5075539;28;20227;-66
2022/06/17 11:29:50;;;;;;;8.67;4.90;;;10.00;99.90;;;;;;5075934;28;20176;-66
2022/06/17 11:32:29;;;;;;;9.03;4.70;;;9.90;99.90;;;;;;5057889;28;20262;-66
2022/06/17 11:35:16;;;;;;;8.43;4.83;;;9.80;99.90;;;;;;5076054;28;20669;-66
2022/06/17 11:37:47;;;;;;;7.87;4.87;;;9.70;99.90;;;;;;5075982;28;20182;-65
2022/06/17 11:40:24;;;;;;;7.93;5.33;;;9.60;99.90;;;;;;5075805;28;20168;-65
2022/06/17 11:42:56;;;;;;;8.57;5.20;;;9.60;99.90;;;;;;5075737;28;20184;-65
2022/06/17 11:45:36;;;;;;;7.40;5.00;;;9.60;99.90;;;;;;5075603;28;20182;-65
2022/06/17 11:48:19;;;;;;;7.90;4.90;;;9.50;99.90;;;;;;5057506;28;20212;-66
2022/06/17 11:51:07;;;;;;;11.23;5.57;;;9.40;99.90;;;;;;5075443;28;20685;-65
2022/06/17 11:54:02;;;;;;;8.13;5.37;;;9.40;99.90;;;;;;5057433;28;20560;-65
2022/06/17 11:56:46;;;;;;;7.17;4.67;;;9.30;99.90;;;;;;5075446;28;20210;-65
2022/06/17 11:59:26;;;;;;;9.17;5.17;;;9.20;99.90;;;;;;5074971;28;20182;-65
2022/06/17 12:01:57;;;;;;;8.30;4.90;;;9.20;99.90;;;;;;5079869;28;20181;-66
2022/06/17 12:04:45;;;;;;;7.10;5.00;;;9.20;99.90;;;;;;5079621;28;20170;-65
2022/06/17 12:07:52;;;;;;;11.37;5.27;;;9.20;99.90;;;;;;5075046;28;20215;-66
2022/06/17 12:10:31;;;;;;;7.23;4.90;;;9.20;99.90;;;;;;5075078;28;20187;-65
2022/06/17 12:13:27;;;;;;;7.93;5.47;;;9.10;99.90;;;;;;5074982;28;20172;-66
2022/06/17 12:15:58;;;;;;;10.80;6.03;;;9.10;99.90;;;;;;5064154;28;20216;-64
2022/06/17 12:18:37;;;;;;;11.97;6.03;;;9.10;99.90;;;;;;5075008;28;20196;-67
2022/06/17 12:21:31;;;;;;;14.10;9.50;;;9.20;99.90;;;;;;5074994;28;20659;-64
2022/06/17 12:24:17;;;;;;;12.03;7.87;;;9.20;99.90;;;;;;5074645;28;20189;-66
2022/06/17 12:26:51;;;;;;;10.43;6.70;;;9.30;99.90;;;;;;5074523;28;20246;-65
2022/06/17 12:29:18;;;;;;;11.43;7.33;;;9.30;99.90;;;;;;5074874;28;20183;-66
2022/06/17 12:32:00;;;;;;;9.17;5.83;;;9.50;99.90;;;;;;5074876;28;20206;-65
2022/06/17 12:35:04;;;;;;;10.03;5.97;;;9.40;99.90;;;;;;5074720;28;20186;-65
2022/06/17 12:37:48;;;;;;;10.43;6.03;;;9.40;99.90;;;;;;5023821;28;20201;-66
2022/06/17 12:40:46;;;;;;;8.33;5.40;;;9.30;99.90;;;;;;5074701;28;20271;-66
2022/06/17 12:43:38;;;;;;;7.90;5.33;;;9.30;99.90;;;;;;5065148;28;20228;-66
2022/06/17 12:46:12;;;;;;;8.77;5.57;;;9.20;99.90;;;;;;5074543;28;20255;-65
2022/06/17 12:53:13;;;;;;;10.93;5.63;;;9.10;99.90;;;;;;5074254;28;20283;-65
2022/06/17 12:55:08;;;;;;;15.00;5.40;;;9.10;99.90;;;;;;5062674;28;20229;-65
2022/06/17 12:58:11;;;;;;;6.33;4.43;;;9.10;99.90;;;;;;5089369;28;20713;-66
2022/06/17 13:00:50;;;;;;;6.00;4.30;;;9.00;99.90;;;;;;5037724;28;20278;-65
2022/06/17 13:03:47;;;;;;;7.93;4.63;;;8.90;99.90;;;;;;5086518;28;20194;-65
2022/06/17 13:06:19;;;;;;;6.97;4.10;;;8.90;99.90;;;;;;5086636;28;20206;-65
2022/06/17 13:09:03;;;;;;;8.23;4.43;;;8.90;99.90;;;;;;5094034;28;20183;-64
2022/06/17 13:12:07;;;;;;;5.57;4.00;;;8.80;99.90;;;;;;5094486;28;20253;-65
2022/06/17 13:14:46;;;;;;;6.20;4.00;;;8.90;99.90;;;;;;5057700;28;20203;-66
2022/06/17 13:17:31;;;;;;;7.37;4.30;;;8.80;99.90;;;;;;5092504;28;20261;-65
2022/06/17 13:20:16;;;;;;;6.67;4.53;;;8.80;99.90;;;;;;5093432;28;20647;-65
2022/06/17 13:22:56;;;;;;;6.07;4.23;;;8.80;99.90;;;;;;5092035;28;20176;-64
2022/06/17 13:25:46;;;;;;;6.50;4.00;;;8.70;99.90;;;;;;5085715;28;20168;-64
2022/06/17 13:28:41;;;;;;;6.57;3.87;;;8.60;99.90;;;;;;5094194;28;20180;-65
2022/06/17 13:31:45;;;;;;;4.47;3.20;;;8.60;99.90;;;;;;5093128;28;20190;-65
2022/06/17 13:34:36;;;;;;;4.63;3.27;;;8.60;99.90;;;;;;5079342;28;20633;-65
2022/06/17 13:37:32;;;;;;;4.47;3.40;;;8.60;99.90;;;;;;5089307;28;20740;-65
2022/06/17 13:40:13;;;;;;;5.33;3.50;;;8.60;99.90;;;;;;5075441;28;20517;-66
2022/06/17 13:42:41;;;;;;;9.67;4.10;;;8.50;99.90;;;;;;5074543;28;20183;-65
2022/06/17 13:45:37;;;;;;;5.37;3.53;;;8.50;99.90;;;;;;5092430;28;20182;-65
2022/06/17 13:48:22;;;;;;;6.07;3.50;;;8.60;99.90;;;;;;5093283;28;20503;-65